Terminal Aerodrome Forecast
Issued by NWS Cleveland, OH

Home | Current Version | Previous Version | Text Only | Print | Product List | Glossary On
Versions: 1 2 3 4 5 6 7 8 9 10 11 12 13 14 15 16 17 18 19 20 21 22 23 24
000
FTUS41 KCLE 011700 RRA
TAFYNG
TAF
KYNG 011746Z 0118/0218 11006KT 1 1/2SM -SN SCT006 OVC015
     FM012200 09010KT 3/4SM -SN OVC006
     FM020300 09010KT 2SM -SNRAPL OVC004
     FM020800 26010KT 1SM -SN OVC004=

USA.gov is the U.S. government's official web portal to all federal, state and local government web resources and services.